Terminal Aerodrome Forecast
Issued by NWS

Home | Current Version | Previous Version | Text Only | Print | Product List | Glossary Off
Versions: 1 2 3 4 5 6 7 8 9 10 11 12 13 14 15 16

000
FTUS43 KMPX 270520
TAFRWF
TAF
KRWF 270520Z 2706/2806 13005KT P6SM BKN150
     FM271000 15006KT P6SM VCSH SCT040 OVC080
      TEMPO 2710/2713 -SHRA SCT030 OVC050
     FM271500 16010KT P6SM BKN050=

USA.gov is the U.S. government's official web portal to all federal, state and local government web resources and services.